createdAt,value
2022-10-17T00:00:42.241Z,98503.63
2022-10-17T00:02:43.553Z,98505.31
2022-10-17T00:04:44.827Z,98497.69
2022-10-17T00:06:46.262Z,98505.22
2022-10-17T00:08:47.540Z,98505.25
2022-10-17T00:10:48.802Z,98503.66
2022-10-17T00:12:50.248Z,98507.03
2022-10-17T00:14:51.506Z,98511.25
2022-10-17T00:16:52.795Z,98509.97
2022-10-17T00:18:54.123Z,98505.91
2022-10-17T00:20:55.448Z,98510.03
2022-10-17T00:22:56.743Z,98506.66
2022-10-17T00:24:58.019Z,98509.25
2022-10-17T00:26:59.286Z,98522.94
2022-10-17T00:29:00.614Z,98525.59
2022-10-17T00:31:01.898Z,98518.81
2022-10-17T00:33:03.166Z,98523.16
2022-10-17T00:35:04.417Z,98512.09
2022-10-17T00:37:05.674Z,98505.38
2022-10-17T00:39:07.007Z,98502.84
2022-10-17T00:41:08.278Z,98496.03
2022-10-17T00:43:09.554Z,98497.78
2022-10-17T00:45:10.831Z,98494.41
2022-10-17T00:47:13.895Z,98502.13
2022-10-17T00:49:15.161Z,98501.31
2022-10-17T00:51:16.418Z,98503.06
2022-10-17T00:53:17.680Z,98515.88
2022-10-17T00:55:18.986Z,98507.38
2022-10-17T00:57:20.246Z,98508.25
2022-10-17T00:59:21.639Z,98507.44
2022-10-17T01:01:22.982Z,98509.16
2022-10-17T01:03:24.312Z,98512.59
2022-10-17T01:05:25.604Z,98512.63
2022-10-17T01:07:27.550Z,98520.31
2022-10-17T01:09:28.852Z,98514.38
2022-10-17T01:11:30.126Z,98510.13
2022-10-17T01:13:31.446Z,98512.69
2022-10-17T01:15:32.725Z,98527.19
2022-10-17T01:17:34.034Z,98509.31
2022-10-17T01:19:35.352Z,98513.56
2022-10-17T01:21:36.606Z,98511.91
2022-10-17T01:23:37.886Z,98511.94
2022-10-17T01:25:39.149Z,98527.28
2022-10-17T01:27:40.430Z,98514.53
2022-10-17T01:29:41.727Z,98515.41
2022-10-17T01:31:42.993Z,98521.41
2022-10-17T01:33:44.247Z,98522.25
2022-10-17T01:35:45.583Z,98523.13
2022-10-17T01:37:46.902Z,98518.03
2022-10-17T01:39:48.262Z,98519.72
2022-10-17T01:41:49.535Z,98515.50
2022-10-17T01:43:50.809Z,98515.50
2022-10-17T01:45:52.087Z,98510.44
2022-10-17T01:47:53.417Z,98519.84
2022-10-17T01:49:54.695Z,98519.81
2022-10-17T01:51:55.967Z,98513.88
2022-10-17T01:53:57.268Z,98523.31
2022-10-17T01:58:04.762Z,98519.94
2022-10-17T02:00:06.103Z,98515.69
2022-10-17T02:02:07.431Z,98518.25
2022-10-17T02:04:08.775Z,98511.47
2022-10-17T02:06:10.040Z,98517.47
2022-10-17T02:08:11.327Z,98511.50
2022-10-17T02:10:12.637Z,98511.47
2022-10-17T02:12:13.915Z,98513.22
2022-10-17T02:14:15.224Z,98518.25
2022-10-17T02:16:16.557Z,98513.09
2022-10-17T02:18:17.951Z,98513.09
2022-10-17T02:20:19.212Z,98513.88
2022-10-17T02:22:20.474Z,98512.97
2022-10-17T02:24:21.751Z,98513.78
2022-10-17T02:26:23.224Z,98508.59
2022-10-17T02:28:25.213Z,98508.59
2022-10-17T02:30:26.526Z,98506.84
2022-10-17T02:32:27.812Z,98506.81
2022-10-17T02:34:29.111Z,98503.41
2022-10-17T02:36:30.420Z,98528.09
2022-10-17T02:40:33.077Z,98511.09
2022-10-17T02:42:34.380Z,98511.13
2022-10-17T02:44:35.675Z,98508.59
2022-10-17T02:46:36.948Z,98509.41
2022-10-17T02:48:38.263Z,98508.50
2022-10-17T02:50:39.603Z,98499.94
2022-10-17T02:52:40.935Z,98499.06
2022-10-17T02:54:42.233Z,98494.81
2022-10-17T02:56:43.570Z,98496.50
2022-10-17T02:58:44.844Z,98504.16
2022-10-17T03:00:46.104Z,98505.00
2022-10-17T03:02:47.414Z,98509.28
2022-10-17T03:04:48.694Z,98510.81
2022-10-17T03:06:50.008Z,98511.66
2022-10-17T03:08:51.298Z,98522.84
2022-10-17T03:10:52.794Z,98510.94
2022-10-17T03:12:54.071Z,98511.75
2022-10-17T03:14:55.554Z,98512.59
2022-10-17T03:16:56.874Z,98521.06
2022-10-17T03:18:58.178Z,98517.59
2022-10-17T03:20:59.497Z,98521.00
2022-10-17T03:23:00.778Z,98515.03
2022-10-17T03:25:02.110Z,98527.81
2022-10-17T03:27:03.371Z,98521.81
2022-10-17T03:29:04.685Z,98522.63
2022-10-17T03:31:06.104Z,98524.28
2022-10-17T03:33:07.387Z,98519.16
2022-10-17T03:35:12.604Z,98514.09
2022-10-17T03:37:16.381Z,98515.00
2022-10-17T03:39:17.653Z,98523.59
2022-10-17T03:41:18.926Z,98518.53
2022-10-17T03:43:20.255Z,98525.41
2022-10-17T03:45:21.542Z,98517.78
2022-10-17T03:47:22.809Z,98527.16
2022-10-17T03:49:24.101Z,98523.72
2022-10-17T03:51:25.399Z,98524.59
2022-10-17T03:53:26.713Z,98517.72
2022-10-17T03:55:27.966Z,98521.13
2022-10-17T03:57:29.364Z,98527.00
2022-10-17T03:59:30.731Z,98518.44
2022-10-17T04:01:32.145Z,98524.41
2022-10-17T04:03:33.534Z,98524.41
2022-10-17T04:05:34.794Z,98526.09
2022-10-17T04:07:37.797Z,98533.72
2022-10-17T04:09:39.078Z,98530.31
2022-10-17T04:11:40.366Z,98523.53
2022-10-17T04:13:41.675Z,98524.41
2022-10-17T04:15:42.951Z,98524.44
2022-10-17T04:17:44.272Z,98533.00
2022-10-17T04:19:45.594Z,98541.50
2022-10-17T04:21:46.939Z,98531.31
2022-10-17T04:23:48.210Z,98542.31
2022-10-17T04:25:49.527Z,98540.53
2022-10-17T04:27:50.850Z,98541.34
2022-10-17T04:29:52.289Z,98538.78
2022-10-17T04:31:53.667Z,98537.06
2022-10-17T04:33:54.929Z,98531.09
2022-10-17T04:35:56.226Z,98552.38
2022-10-17T04:37:57.499Z,98537.94
2022-10-17T04:39:58.771Z,98541.41
2022-10-17T04:42:00.046Z,98530.31
2022-10-17T04:44:01.359Z,98567.84
2022-10-17T04:46:02.652Z,98545.69
2022-10-17T04:48:03.909Z,98546.47
2022-10-17T04:50:05.211Z,98546.47
2022-10-17T04:52:06.527Z,98551.53
2022-10-17T04:54:07.825Z,98555.75
2022-10-17T04:56:09.095Z,98550.59
2022-10-17T04:58:10.408Z,98542.94
2022-10-17T05:00:11.700Z,98553.97
2022-10-17T05:02:13.033Z,98547.91
2022-10-17T05:04:14.312Z,98553.00
2022-10-17T05:06:15.593Z,98544.50
2022-10-17T05:08:16.862Z,98553.06
2022-10-17T05:10:18.132Z,98548.03
2022-10-17T05:12:19.403Z,98554.09
2022-10-17T05:14:20.759Z,98561.84
2022-10-17T05:16:22.034Z,98567.84
2022-10-17T05:18:23.348Z,98562.81
2022-10-17T05:20:24.660Z,98562.81
2022-10-17T05:22:25.946Z,98566.25
2022-10-17T05:24:27.268Z,98568.75
2022-10-17T05:26:28.530Z,98563.56
2022-10-17T05:28:29.860Z,98561.84
2022-10-17T05:30:35.152Z,98560.94
2022-10-17T05:32:38.886Z,98561.72
2022-10-17T05:34:40.205Z,98566.81
2022-10-17T05:36:41.478Z,98565.13
2022-10-17T05:38:42.757Z,98570.19
2022-10-17T05:40:44.038Z,98574.41
2022-10-17T05:42:45.308Z,98576.13
2022-10-17T05:44:46.625Z,98575.25
2022-10-17T05:46:47.901Z,98577.81
2022-10-17T05:48:49.191Z,98578.72
2022-10-17T05:50:50.472Z,98581.31
2022-10-17T05:52:51.750Z,98576.25
2022-10-17T05:54:53.042Z,98578.81
2022-10-17T05:56:54.356Z,98583.97
2022-10-17T05:59:00.655Z,98581.47
2022-10-17T06:01:02.424Z,98594.25
2022-10-17T06:03:03.717Z,98593.41
2022-10-17T06:05:05.006Z,98595.94
2022-10-17T06:07:06.437Z,98594.16
2022-10-17T06:09:08.071Z,98604.34
2022-10-17T06:11:10.495Z,98600.91
2022-10-17T06:13:12.086Z,98609.34
2022-10-17T06:15:13.405Z,98608.41
2022-10-17T06:17:16.249Z,98610.97
2022-10-17T06:19:17.766Z,98618.66
2022-10-17T06:21:19.075Z,98616.91
2022-10-17T06:23:20.375Z,98616.03
2022-10-17T06:25:21.642Z,98616.91
2022-10-17T06:27:22.967Z,98622.00
2022-10-17T06:29:24.302Z,98624.63
2022-10-17T06:31:25.627Z,98622.97
2022-10-17T06:33:27.228Z,98627.22
2022-10-17T06:35:28.554Z,98630.63
2022-10-17T06:37:31.055Z,98638.34
2022-10-17T06:39:36.475Z,98635.59
2022-10-17T06:41:38.051Z,98632.78
2022-10-17T06:43:39.495Z,98636.13
2022-10-17T06:45:40.775Z,98642.25
2022-10-17T06:47:42.085Z,98645.91
2022-10-17T06:49:43.414Z,98646.59
2022-10-17T06:51:44.692Z,98643.84
2022-10-17T06:53:46.035Z,98649.59
2022-10-17T06:55:47.320Z,98652.97
2022-10-17T06:57:48.594Z,98652.19
2022-10-17T06:59:49.866Z,98659.19
2022-10-17T07:01:51.182Z,98664.53
2022-10-17T07:03:52.566Z,98662.09
2022-10-17T07:05:53.855Z,98662.16
2022-10-17T07:07:55.122Z,98670.78
2022-10-17T07:09:56.435Z,98669.97
2022-10-17T07:11:57.722Z,98666.66
2022-10-17T07:13:59.046Z,98664.19
2022-10-17T07:16:01.822Z,98670.22
2022-10-17T07:18:03.187Z,98675.75
2022-10-17T07:20:04.555Z,98672.66
2022-10-17T07:22:05.862Z,98672.47
2022-10-17T07:24:10.022Z,98673.06
2022-10-17T07:26:11.300Z,98681.38
2022-10-17T07:28:12.638Z,98683.88
2022-10-17T07:30:13.916Z,98681.25
2022-10-17T07:32:15.220Z,98688.84
2022-10-17T07:34:16.701Z,98681.06
2022-10-17T07:36:18.085Z,98690.41
2022-10-17T07:38:19.407Z,98682.72
2022-10-17T07:40:20.761Z,98692.13
2022-10-17T07:42:22.019Z,98694.59
2022-10-17T07:44:23.321Z,98688.56
2022-10-17T07:46:24.621Z,98691.13
2022-10-17T07:48:25.953Z,98703.03
2022-10-17T07:50:27.234Z,98690.28
2022-10-17T07:52:28.647Z,98701.34
2022-10-17T07:54:30.182Z,98705.63
2022-10-17T07:56:34.250Z,98702.25
2022-10-17T07:58:35.626Z,98713.31
2022-10-17T08:00:37.039Z,98703.97
2022-10-17T08:02:38.464Z,98707.34
2022-10-17T08:04:39.899Z,98713.16
2022-10-17T08:06:41.508Z,98706.25
2022-10-17T08:08:43.098Z,98706.94
2022-10-17T08:10:44.527Z,98706.81
2022-10-17T08:12:45.863Z,98705.00
2022-10-17T08:14:48.190Z,98712.59
2022-10-17T08:16:49.495Z,98713.44
2022-10-17T08:18:50.810Z,98718.56
2022-10-17T08:20:54.625Z,98716.84
2022-10-17T08:22:58.110Z,98712.56
2022-10-17T08:24:59.394Z,98707.44
2022-10-17T08:27:00.865Z,98710.00
2022-10-17T08:29:02.322Z,98710.84
2022-10-17T08:31:03.688Z,98709.94
2022-10-17T08:33:04.964Z,98703.81
2022-10-17T08:35:06.250Z,98706.53
2022-10-17T08:37:07.563Z,98705.78
2022-10-17T08:39:08.902Z,98700.78
2022-10-17T08:41:10.159Z,98705.97
2022-10-17T08:43:11.489Z,98702.59
2022-10-17T08:45:14.693Z,98708.56
2022-10-17T08:47:15.978Z,98704.34
2022-10-17T08:49:17.277Z,98698.34
2022-10-17T08:51:18.532Z,98695.78
2022-10-17T08:53:19.841Z,98703.47
2022-10-17T08:55:21.127Z,98694.97
2022-10-17T08:57:22.564Z,98695.81
2022-10-17T08:59:23.827Z,98704.16
2022-10-17T09:01:25.344Z,98698.09
2022-10-17T09:03:26.901Z,98708.25
2022-10-17T09:05:28.349Z,98701.13
2022-10-17T09:07:30.032Z,98696.59
2022-10-17T09:09:31.555Z,98686.22
2022-10-17T09:11:32.822Z,98686.94
2022-10-17T09:13:34.183Z,98678.41
2022-10-17T09:15:35.522Z,98677.53
2022-10-17T09:17:36.822Z,98680.09
2022-10-17T09:19:38.135Z,98680.06
2022-10-17T09:21:39.408Z,98676.59
2022-10-17T09:23:42.527Z,98678.19
2022-10-17T09:25:44.213Z,98673.97
2022-10-17T09:27:45.571Z,98669.75
2022-10-17T09:29:46.846Z,98666.34
2022-10-17T09:31:48.211Z,98666.34
2022-10-17T09:33:54.349Z,98674.03
2022-10-17T09:35:56.292Z,98674.03
2022-10-17T09:37:57.611Z,98674.88
2022-10-17T09:39:58.886Z,98681.81
2022-10-17T09:42:00.210Z,98684.66
2022-10-17T09:44:01.494Z,98690.09
2022-10-17T09:46:02.827Z,98693.72
2022-10-17T09:48:04.124Z,98689.53
2022-10-17T09:50:05.375Z,98687.88
2022-10-17T09:52:06.651Z,98681.13
2022-10-17T09:54:07.937Z,98679.50
2022-10-17T09:56:09.418Z,98688.94
2022-10-17T09:58:10.775Z,98686.41
2022-10-17T10:00:12.075Z,98688.13
2022-10-17T10:02:13.436Z,98689.00
2022-10-17T10:04:14.771Z,98695.88
2022-10-17T10:06:16.107Z,98701.84
2022-10-17T10:08:17.445Z,98700.22
2022-10-17T10:10:18.719Z,98699.31
2022-10-17T10:12:19.997Z,98695.38
2022-10-17T10:14:21.359Z,98592.28
2022-10-17T10:16:23.143Z,98699.41
2022-10-17T10:18:24.490Z,98692.56
2022-10-17T10:20:25.813Z,98704.94
2022-10-17T10:22:27.375Z,98694.22
2022-10-17T10:24:31.003Z,98689.19
2022-10-17T10:26:32.506Z,98689.19
2022-10-17T10:28:33.866Z,98692.47
2022-10-17T10:30:39.047Z,98685.50
2022-10-17T10:32:41.378Z,98681.13
2022-10-17T10:34:42.654Z,98574.28
2022-10-17T10:36:43.947Z,98680.59
2022-10-17T10:38:45.229Z,98679.72
2022-10-17T10:40:46.668Z,98675.47
2022-10-17T10:42:48.041Z,98671.16
2022-10-17T10:44:49.527Z,98674.56
2022-10-17T10:46:50.803Z,98669.34
2022-10-17T10:48:52.121Z,98666.72
2022-10-17T10:50:53.390Z,98670.09
2022-10-17T10:52:54.684Z,98670.03
2022-10-17T10:54:55.986Z,98674.34
2022-10-17T10:57:03.372Z,98670.94
2022-10-17T10:59:04.707Z,98666.59
2022-10-17T11:01:06.097Z,98673.34
2022-10-17T11:03:11.738Z,98696.34
2022-10-17T11:05:13.843Z,98680.19
2022-10-17T11:07:15.256Z,98680.19
2022-10-17T11:09:16.562Z,98680.19
2022-10-17T11:11:19.503Z,98685.03
2022-10-17T11:13:20.807Z,98677.19
2022-10-17T11:15:22.286Z,98683.38
2022-10-17T11:17:23.635Z,98681.88
2022-10-17T11:19:24.963Z,98678.41
2022-10-17T11:21:28.799Z,98674.09
2022-10-17T11:23:30.239Z,98680.03
2022-10-17T11:25:31.852Z,98677.44
2022-10-17T11:27:33.178Z,98668.88
2022-10-17T11:29:34.575Z,98668.88
2022-10-17T11:31:35.840Z,98661.19
2022-10-17T11:33:37.127Z,98660.31
2022-10-17T11:35:38.794Z,98662.88
2022-10-17T11:37:40.886Z,98658.59
2022-10-17T11:39:42.399Z,98664.59
2022-10-17T11:41:43.706Z,98659.25
2022-10-17T11:43:44.973Z,98658.56
2022-10-17T11:45:46.240Z,98653.97
2022-10-17T11:47:47.560Z,98663.31
2022-10-17T11:49:50.979Z,98659.88
2022-10-17T11:52:01.595Z,98660.75
2022-10-17T11:54:03.518Z,98661.59
2022-10-17T11:56:04.786Z,98665.91
2022-10-17T11:58:06.087Z,98662.50
2022-10-17T12:00:07.367Z,98652.28
2022-10-17T12:02:08.643Z,98654.03
2022-10-17T12:04:09.947Z,98647.19
2022-10-17T12:06:11.258Z,98644.72
2022-10-17T12:08:12.576Z,98644.69
2022-10-17T12:10:13.858Z,98640.41
2022-10-17T12:12:15.132Z,98642.13
2022-10-17T12:14:16.395Z,98645.53
2022-10-17T12:16:17.742Z,98631.06
2022-10-17T12:18:19.131Z,98630.19
2022-10-17T12:20:21.259Z,98636.22
2022-10-17T12:22:23.009Z,98648.16
2022-10-17T12:24:24.331Z,98625.16
2022-10-17T12:26:25.626Z,98629.44
2022-10-17T12:28:27.443Z,98632.31
2022-10-17T12:30:28.857Z,98629.03
2022-10-17T12:32:36.813Z,98627.97
2022-10-17T12:34:48.504Z,98621.97
2022-10-17T12:36:50.069Z,98623.44
2022-10-17T12:38:51.383Z,98615.94
2022-10-17T12:40:52.761Z,98615.03
2022-10-17T12:42:54.073Z,98615.94
2022-10-17T12:44:55.388Z,98623.59
2022-10-17T12:46:56.694Z,98621.41
2022-10-17T12:48:57.998Z,98611.78
2022-10-17T12:51:17.629Z,98601.22
2022-10-17T12:53:20.562Z,98599.53
2022-10-17T12:55:21.886Z,98598.13
2022-10-17T12:57:23.211Z,98596.53
2022-10-17T12:59:24.521Z,98591.34
2022-10-17T13:01:25.964Z,98588.75
2022-10-17T13:03:27.373Z,98592.81
2022-10-17T13:05:28.724Z,98588.91
2022-10-17T13:07:30.126Z,98594.75
2022-10-17T13:09:32.013Z,98590.19
2022-10-17T13:11:33.295Z,98600.06
2022-10-17T13:13:34.618Z,98595.47
2022-10-17T13:15:35.969Z,98589.66
2022-10-17T13:17:40.600Z,98599.56
2022-10-17T13:19:44.341Z,98591.88
2022-10-17T13:21:45.672Z,98595.06
2022-10-17T13:23:49.377Z,98589.00
2022-10-17T13:25:50.836Z,98590.78
2022-10-17T13:27:53.927Z,98593.28
2022-10-17T13:29:56.300Z,98590.72
2022-10-17T13:31:57.665Z,98595.78
2022-10-17T13:33:59.085Z,98593.22
2022-10-17T13:36:01.185Z,98594.22
2022-10-17T13:38:03.339Z,98585.13
2022-10-17T13:40:17.543Z,98581.91
2022-10-17T13:42:25.878Z,98601.06
2022-10-17T13:44:27.155Z,98575.59
2022-10-17T13:46:37.488Z,98571.34
2022-10-17T13:48:39.983Z,98574.84
2022-10-17T13:50:44.644Z,98578.13
2022-10-17T13:52:46.355Z,98569.03
2022-10-17T13:54:48.226Z,98572.41
2022-10-17T13:56:49.555Z,98574.56
2022-10-17T13:58:50.942Z,98584.69
2022-10-17T14:00:52.708Z,98576.13
2022-10-17T14:02:54.025Z,98572.66
2022-10-17T14:05:16.170Z,98570.22
2022-10-17T14:07:16.578Z,98577.00
2022-10-17T14:09:17.914Z,98573.59
2022-10-17T14:11:19.219Z,98577.91
2022-10-17T14:13:20.534Z,98575.41
2022-10-17T14:15:21.805Z,98573.44
2022-10-17T14:17:23.186Z,98580.28
2022-10-17T14:19:24.589Z,98577.84
2022-10-17T14:21:43.471Z,98584.00
2022-10-17T14:23:45.823Z,98582.97
2022-10-17T14:25:47.106Z,98595.44
2022-10-17T14:27:48.379Z,98582.72
2022-10-17T14:29:49.718Z,98587.97
2022-10-17T14:31:53.559Z,98477.72
2022-10-17T14:33:55.084Z,98585.66
2022-10-17T14:35:56.385Z,98597.28
2022-10-17T14:37:57.758Z,98592.09
2022-10-17T14:39:59.072Z,98590.00
2022-10-17T14:42:04.279Z,98590.78
2022-10-17T14:44:06.653Z,98603.53
2022-10-17T14:46:07.931Z,98584.69
2022-10-17T14:48:09.237Z,98584.56
2022-10-17T14:50:10.566Z,98582.84
2022-10-17T14:52:15.137Z,98588.09
2022-10-17T14:54:18.579Z,98583.78
2022-10-17T14:56:19.903Z,98584.28
2022-10-17T14:58:21.178Z,98586.03
2022-10-17T15:00:22.450Z,98580.97
2022-10-17T15:02:23.801Z,98578.63
2022-10-17T15:04:28.215Z,98581.22
2022-10-17T15:06:29.503Z,98584.69
2022-10-17T15:08:30.861Z,98581.31
2022-10-17T15:10:33.019Z,98582.91
2022-10-17T15:12:34.959Z,98583.88
2022-10-17T15:14:36.278Z,98584.81
2022-10-17T15:16:39.420Z,98584.78
2022-10-17T15:18:40.687Z,98583.03
2022-10-17T15:20:41.955Z,98577.69
2022-10-17T15:22:43.271Z,98579.47
2022-10-17T15:24:46.233Z,98583.03
2022-10-17T15:26:47.560Z,98583.00
2022-10-17T15:28:49.680Z,98587.78
2022-10-17T15:30:51.048Z,98584.84
2022-10-17T15:32:52.995Z,98584.69
2022-10-17T15:34:54.307Z,98585.53
2022-10-17T15:36:55.632Z,98596.47
2022-10-17T15:38:57.016Z,98602.94
2022-10-17T15:40:58.411Z,98597.59
2022-10-17T15:42:59.716Z,98591.41
2022-10-17T15:45:01.027Z,98598.16
2022-10-17T15:47:02.356Z,98602.38
2022-10-17T15:49:03.850Z,98603.41
2022-10-17T15:51:05.136Z,98601.66
2022-10-17T15:53:06.454Z,98596.31
2022-10-17T15:55:07.765Z,98601.31
2022-10-17T15:57:09.059Z,98474.81
2022-10-17T15:59:10.333Z,98605.41
2022-10-17T16:01:11.628Z,98599.16
2022-10-17T16:03:14.227Z,98608.44
2022-10-17T16:05:16.114Z,98605.72
2022-10-17T16:07:17.423Z,98608.34
2022-10-17T16:09:18.727Z,98609.28
2022-10-17T16:11:20.057Z,98608.38
2022-10-17T16:13:21.374Z,98612.97
2022-10-17T16:15:22.940Z,98618.97
2022-10-17T16:17:27.126Z,98610.44
2022-10-17T16:19:29.996Z,98613.84
2022-10-17T16:23:37.653Z,98618.09
2022-10-17T16:25:40.276Z,98618.88
2022-10-17T16:27:41.592Z,98618.88
2022-10-17T16:29:42.982Z,98612.94
2022-10-17T16:31:44.304Z,98614.47
2022-10-17T16:33:45.570Z,98617.94
2022-10-17T16:35:49.255Z,98619.66
2022-10-17T16:37:50.611Z,98621.41
2022-10-17T16:39:55.621Z,98612.59
2022-10-17T16:41:58.597Z,98620.28
2022-10-17T16:44:00.165Z,98616.53
2022-10-17T16:46:04.529Z,98609.75
2022-10-17T16:48:05.837Z,98614.34
2022-10-17T16:50:07.151Z,98615.84
2022-10-17T16:52:08.497Z,98623.16
2022-10-17T16:54:09.763Z,98613.06
2022-10-17T16:56:11.082Z,98618.09
2022-10-17T16:58:12.349Z,98621.31
2022-10-17T17:00:14.192Z,98617.16
2022-10-17T17:02:18.932Z,98629.06
2022-10-17T17:04:22.735Z,98625.81
2022-10-17T17:06:24.461Z,98635.94
2022-10-17T17:08:25.732Z,98635.78
2022-10-17T17:10:29.731Z,98637.47
2022-10-17T17:12:31.011Z,98647.00
2022-10-17T17:14:32.341Z,98646.13
2022-10-17T17:16:33.626Z,98642.72
2022-10-17T17:18:34.946Z,98636.72
2022-10-17T17:20:36.275Z,98640.97
2022-10-17T17:22:37.552Z,98631.50
2022-10-17T17:24:38.908Z,98637.53
2022-10-17T17:26:41.617Z,98633.31
2022-10-17T17:28:42.984Z,98630.69
2022-10-17T17:30:44.318Z,98622.72
2022-10-17T17:32:45.599Z,98627.56
2022-10-17T17:34:46.895Z,98638.13
2022-10-17T17:36:48.154Z,98634.53
2022-10-17T17:38:52.203Z,98639.53
2022-10-17T17:40:53.482Z,98644.66
2022-10-17T17:42:54.837Z,98646.38
2022-10-17T17:44:59.262Z,98639.59
2022-10-17T17:47:00.571Z,98636.13
2022-10-17T17:49:01.922Z,98642.81
2022-10-17T17:51:03.189Z,98646.94
2022-10-17T17:53:13.630Z,98650.41
2022-10-17T17:55:14.925Z,98644.50
2022-10-17T17:57:16.203Z,98651.44
2022-10-17T17:59:17.491Z,98647.22
2022-10-17T18:01:21.343Z,98652.41
2022-10-17T18:03:22.699Z,98655.56
2022-10-17T18:05:23.970Z,98651.22
2022-10-17T18:07:25.246Z,98650.31
2022-10-17T18:09:26.540Z,98643.50
2022-10-17T18:11:30.668Z,98637.53
2022-10-17T18:13:31.945Z,98641.00
2022-10-17T18:15:33.228Z,98636.63
2022-10-17T18:17:38.133Z,98641.03
2022-10-17T18:19:39.419Z,98648.72
2022-10-17T18:21:40.778Z,98644.72
2022-10-17T18:23:42.069Z,98648.03
2022-10-17T18:25:43.364Z,98647.16
2022-10-17T18:27:47.610Z,98641.25
2022-10-17T18:29:51.598Z,98642.06
2022-10-17T18:31:52.894Z,98639.41
2022-10-17T18:33:54.187Z,98640.91
2022-10-17T18:35:58.247Z,98645.00
2022-10-17T18:38:02.862Z,98643.94
2022-10-17T18:40:04.222Z,98635.38
2022-10-17T18:42:05.599Z,98635.66
2022-10-17T18:44:06.946Z,98639.88
2022-10-17T18:46:12.242Z,98633.50
2022-10-17T18:48:16.026Z,98503.56
2022-10-17T18:50:17.508Z,98640.41
2022-10-17T18:52:18.789Z,98640.44
2022-10-17T18:54:21.218Z,98639.69
2022-10-17T18:56:22.503Z,98638.00
2022-10-17T18:58:24.180Z,98638.81
2022-10-17T19:00:25.446Z,98636.19
2022-10-17T19:02:31.310Z,98630.31
2022-10-17T19:04:35.506Z,98642.94
2022-10-17T19:06:36.778Z,98652.28
2022-10-17T19:08:38.184Z,98648.97
2022-10-17T19:10:39.526Z,98659.81
2022-10-17T19:12:40.814Z,98661.59
2022-10-17T19:14:42.133Z,98664.63
2022-10-17T19:16:43.491Z,98666.84
2022-10-17T19:18:44.833Z,98662.63
2022-10-17T19:20:46.167Z,98667.78
2022-10-17T19:22:47.476Z,98671.75
2022-10-17T19:24:48.903Z,98678.28
2022-10-17T19:26:53.590Z,98669.09
2022-10-17T19:28:55.077Z,98670.44
2022-10-17T19:30:56.419Z,98676.91
2022-10-17T19:32:57.689Z,98665.28
2022-10-17T19:34:58.974Z,98682.25
2022-10-17T19:37:03.318Z,98679.75
2022-10-17T19:39:06.934Z,98681.50
2022-10-17T19:41:08.244Z,98679.69
2022-10-17T19:43:09.522Z,98682.06
2022-10-17T19:45:10.851Z,98677.88
2022-10-17T19:47:12.154Z,98676.16
2022-10-17T19:49:13.417Z,98693.19
2022-10-17T19:51:17.710Z,98689.72
2022-10-17T19:53:19.019Z,98684.66
2022-10-17T19:55:20.305Z,98685.56
2022-10-17T19:57:21.672Z,98695.88
2022-10-17T20:01:29.175Z,98696.56
2022-10-17T20:03:30.518Z,98688.06
2022-10-17T20:05:31.779Z,98687.22
2022-10-17T20:07:33.055Z,98691.44
2022-10-17T20:09:34.345Z,98699.06
2022-10-17T20:11:35.635Z,98705.94
2022-10-17T20:13:37.004Z,98705.03
2022-10-17T20:15:38.290Z,98695.53
2022-10-17T20:17:39.603Z,98698.53
2022-10-17T20:19:40.869Z,98717.00
2022-10-17T20:21:42.130Z,98711.56
2022-10-17T20:23:44.274Z,98711.09
2022-10-17T20:25:45.546Z,98721.59
2022-10-17T20:27:46.831Z,98721.66
2022-10-17T20:29:48.101Z,98716.53
2022-10-17T20:31:49.413Z,98723.03
2022-10-17T20:33:50.698Z,98724.38
2022-10-17T20:35:51.976Z,98718.22
2022-10-17T20:37:53.246Z,98726.19
2022-10-17T20:40:16.500Z,98727.38
2022-10-17T20:42:16.927Z,98712.09
2022-10-17T20:44:18.237Z,98720.63
2022-10-17T20:46:29.759Z,98712.09
2022-10-17T20:48:37.623Z,98714.59
2022-10-17T20:50:38.898Z,98719.94
2022-10-17T20:52:40.206Z,98711.75
2022-10-17T20:54:41.514Z,98582.75
2022-10-17T20:56:42.813Z,98710.22
2022-10-17T20:58:44.073Z,98710.22
2022-10-17T21:00:45.659Z,98715.91
2022-10-17T21:02:47.029Z,98713.34
2022-10-17T21:04:49.917Z,98714.28
2022-10-17T21:06:54.341Z,98718.72
2022-10-17T21:08:55.685Z,98726.03
2022-10-17T21:10:56.971Z,98719.88
2022-10-17T21:12:59.760Z,98731.91
2022-10-17T21:15:01.423Z,98728.06
2022-10-17T21:17:05.306Z,98729.56
2022-10-17T21:19:06.834Z,98714.78
2022-10-17T21:21:08.434Z,98728.34
2022-10-17T21:23:09.723Z,98729.19
2022-10-17T21:25:11.166Z,98722.34
2022-10-17T21:27:12.423Z,98719.13
2022-10-17T21:29:13.702Z,98727.69
2022-10-17T21:31:15.050Z,98728.47
2022-10-17T21:33:16.340Z,98727.53
2022-10-17T21:35:17.661Z,98724.06
2022-10-17T21:37:19.010Z,98719.91
2022-10-17T21:39:20.376Z,98716.56
2022-10-17T21:41:21.692Z,98717.47
2022-10-17T21:43:22.991Z,98719.22
2022-10-17T21:45:25.921Z,98728.63
2022-10-17T21:47:27.770Z,98721.88
2022-10-17T21:49:29.875Z,98728.72
2022-10-17T21:51:31.161Z,98725.38
2022-10-17T21:53:32.431Z,98717.72
2022-10-17T21:55:36.735Z,98713.47
2022-10-17T21:57:38.026Z,98712.59
2022-10-17T21:59:39.939Z,98710.97
2022-10-17T22:01:41.341Z,98704.19
2022-10-17T22:03:45.800Z,98719.53
2022-10-17T22:05:51.087Z,98723.84
2022-10-17T22:07:52.425Z,98717.03
2022-10-17T22:09:53.818Z,98722.16
2022-10-17T22:11:55.163Z,98717.94
2022-10-17T22:13:57.377Z,98720.50
2022-10-17T22:15:58.656Z,98730.75
2022-10-17T22:17:59.979Z,98729.03
2022-10-17T22:20:01.289Z,98723.97
2022-10-17T22:22:02.558Z,98720.59
2022-10-17T22:24:03.874Z,98724.88
2022-10-17T22:26:05.559Z,98718.03
2022-10-17T22:28:06.826Z,98716.31
2022-10-17T22:30:08.134Z,98713.81
2022-10-17T22:32:09.427Z,98713.81
2022-10-17T22:34:10.725Z,98714.69
2022-10-17T22:36:12.072Z,98713.03
2022-10-17T22:38:13.391Z,98716.47
2022-10-17T22:40:14.708Z,98719.03
2022-10-17T22:42:16.064Z,98713.91
2022-10-17T22:44:17.403Z,98706.28
2022-10-17T22:46:18.927Z,98714.78
2022-10-17T22:48:20.254Z,98712.22
2022-10-17T22:50:21.522Z,98722.44
2022-10-17T22:52:22.822Z,98720.72
2022-10-17T22:54:24.091Z,98724.13
2022-10-17T22:56:25.387Z,98723.28
2022-10-17T22:58:26.735Z,98718.19
2022-10-17T23:02:30.492Z,98717.41
2022-10-17T23:04:32.031Z,98719.94
2022-10-17T23:06:33.364Z,98716.53
2022-10-17T23:08:34.627Z,98724.22
2022-10-17T23:10:35.928Z,98718.25
2022-10-17T23:12:37.272Z,98723.28
2022-10-17T23:14:38.639Z,98710.47
2022-10-17T23:16:39.905Z,98713.91
2022-10-17T23:18:41.314Z,98711.44
2022-10-17T23:20:42.634Z,98711.44
2022-10-17T23:22:44.192Z,98716.53
2022-10-17T23:24:45.462Z,98706.31
2022-10-17T23:26:46.962Z,98711.44
2022-10-17T23:28:48.419Z,98708.88
2022-10-17T23:30:49.751Z,98715.69
2022-10-17T23:32:51.022Z,98717.44
2022-10-17T23:34:52.282Z,98716.59
2022-10-17T23:36:53.581Z,98711.47
2022-10-17T23:38:57.828Z,98715.75
2022-10-17T23:40:59.969Z,98704.66
2022-10-17T23:43:01.411Z,98703.78
2022-10-17T23:45:02.707Z,98706.34
2022-10-17T23:47:03.966Z,98710.63
2022-10-17T23:49:05.319Z,98743.03
2022-10-17T23:51:06.579Z,98718.34
2022-10-17T23:53:07.863Z,98715.84
2022-10-17T23:55:09.156Z,98712.44
2022-10-17T23:57:10.485Z,98705.66
2022-10-17T23:59:11.783Z,98703.13
